This is the latest recevied weather packets stored in our database for station/object DL9MSR. If no packets are shown the sender has not sent any weather packets the latest 10 day(s).
| Time | Temp. | Humidity | Pressure | Rain* | Wind** | Luminosity | Snow |
|---|---|---|---|---|---|---|---|
| 1777498222 | 10° C | 50% | 1031.6 hPa | 0 mm | - | - | - |
| 1777495221 | 11.11° C | 48% | 1031.3 hPa | 0 mm | - | - | - |
| 1777487420 | 15° C | 45% | 1030.1 hPa | 0 mm | - | - | - |
| 1777486819 | 15° C | 45% | 1030 hPa | 0 mm | - | - | - |
| 1777486219 | 15° C | 43% | 1029.8 hPa | 0 mm | - | - | - |
| 1777484440 | 15.56° C | 42% | 1029.7 hPa | 0 mm | - | - | - |
| 1777481420 | 16.67° C | 40% | 1029.4 hPa | 0 mm | - | - | - |
| 1777476020 | 16.67° C | 38% | 1029.7 hPa | 0 mm | - | - | - |
| 1777474820 | 16.67° C | 38% | 1029.7 hPa | 0 mm | - | - | - |
| 1777473620 | 16.67° C | 38% | 1030 hPa | 0 mm | - | - | - |
| 1777467620 | 16.67° C | 38% | 1030.4 hPa | 0 mm | - | - | - |
| 1777464021 | 16.11° C | 39% | 1030.6 hPa | 0 mm | - | - | - |
| 1777461620 | 15.56° C | 40% | 1030.8 hPa | 0 mm | - | - | - |
| 1777456840 | 14.44° C | 42% | 1031.3 hPa | 0 mm | - | - | - |
| 1777450819 | 12.22° C | 48% | 1031.3 hPa | 0 mm | - | - | - |
| 1777449621 | 11.67° C | 52% | 1031.2 hPa | 0 mm | - | - | - |
| 1777443619 | 8.33° C | 62% | 1030.8 hPa | 0 mm | - | - | - |
| 1777443019 | 7.78° C | 63% | 1030.6 hPa | 0 mm | - | - | - |
| 1777441220 | 6.67° C | 68% | 1030.3 hPa | 0 mm | - | - | - |
| 1777436438 | 5° C | 72% | 1029.8 hPa | 0 mm | - | - | - |
| 1777435822 | 5° C | 72% | 1029.7 hPa | 0 mm | - | - | - |
| 1777434618 | 5° C | 71% | 1029.7 hPa | 0 mm | - | - | - |
| 1777432220 | 5° C | 69% | 1029.4 hPa | 0 mm | - | - | - |
| 1777423820 | 6.67° C | 61% | 1029.3 hPa | 0 mm | - | - | - |
| 1777423220 | 6.67° C | 60% | 1029.3 hPa | 0 mm | - | - | - |
* Rain latest hour (hover to see other rain measurements)
** Current wind speed in m/s (hover to see current wind gust speed)